7W6

Hyde County Airport

Engelhard, North Carolina, USA
METAR K7W6 221955Z AUTO 16010G17KT 10SM CLR 29/26 A2981 RMK AO2 T02900262
Observed Flight Rules
Jul-22 @ 19:55 UTC (29 minutes ago) Visual Flight Rules
Wind Visibility Clouds
160° at 10 knots
 Gusting to 17 knots
10 miles
  • Clear skies
Temperatures Readings
Current 29°C / 84°F
Dewpoint 26°C / 79°F
Humidity 84%
Altimeter 29.81" Hg
Pressure 1009 hPa
Elevation 2
METAR K7W6 221955Z AUTO 16010G17KT 10SM CLR 29/26 A2981 RMK AO2 T02900262
Observed Flight Rules
Jul-22 @ 19:55 UTC
(29 minutes ago)
VFR
Wind Visibility
160° at 10 knots
 Gusting to 17 knots
10 miles
Clouds
  • Clear skies
Temperature Dewpoint
29°C / 84°F 26°C / 79°F
Humidity Altimeter Pressure
84% 29.81" Hg 1009 hPa